Time;durP1;ratioP1;P1;durP2;ratioP2;P2;SDS_P1;SDS_P2;PMS_P1;PMS_P2;Temp;Humidity;BMP_temperature;BMP_pressure;BME280_temperature;BME280_humidity;BME280_pressure;Samples;Min_cycle;Max_cycle;Signal;HPM_P1;HPM_P2
2023/04/19 00:00:07;;;;;;;2.30;1.20;;;;;;;9.00;84.08;92978.09;515815;28;884;-53
2023/04/19 00:00:22;;;;;;;1.38;1.00;;;;;;;8.99;83.99;92971.09;515905;28;857;-55
2023/04/19 00:00:38;;;;;;;1.60;1.10;;;;;;;8.98;83.80;92968.91;515858;28;904;-52
2023/04/19 00:00:53;;;;;;;1.77;1.20;;;;;;;8.97;83.92;92972.94;515886;28;798;-54
2023/04/19 00:01:10;;;;;;;1.47;1.30;;;;;;;8.99;83.86;92971.09;515839;28;943;-54
2023/04/19 00:01:25;;;;;;;1.45;1.33;;;;;;;8.97;83.93;92965.41;515807;28;967;-53
2023/04/19 00:01:40;;;;;;;1.60;1.40;;;;;;;8.91;84.51;92967.63;515954;28;829;-52
2023/04/19 00:01:56;;;;;;;1.63;1.40;;;;;;;8.95;84.72;92968.00;515756;28;943;-53
2023/04/19 00:02:12;;;;;;;1.67;1.30;;;;;;;8.95;84.50;92970.75;515941;28;904;-53
2023/04/19 00:02:27;;;;;;;2.33;1.27;;;;;;;8.93;84.90;92967.06;515867;28;785;-52
2023/04/19 00:02:43;;;;;;;2.63;1.20;;;;;;;8.89;84.52;92970.19;515807;28;894;-54
2023/04/19 00:02:59;;;;;;;1.75;1.20;;;;;;;8.88;84.94;92976.97;515850;28;833;-52
2023/04/19 00:03:16;;;;;;;1.20;1.10;;;;;;;8.86;84.71;92967.78;515828;28;838;-53
2023/04/19 00:03:31;;;;;;;1.30;1.10;;;;;;;8.89;84.96;92972.22;515927;28;948;-51
2023/04/19 00:03:46;;;;;;;1.33;1.10;;;;;;;8.80;85.04;92956.97;515851;28;864;-52
2023/04/19 00:04:02;;;;;;;1.00;0.90;;;;;;;8.92;85.01;92973.88;515827;28;824;-51
2023/04/19 00:04:19;;;;;;;1.80;0.93;;;;;;;8.92;84.67;92969.06;515857;28;859;-52
2023/04/19 00:04:36;;;;;;;2.40;1.02;;;;;;;8.92;84.92;92971.84;515832;28;903;-53
2023/04/19 00:04:52;;;;;;;1.20;1.10;;;;;;;8.93;84.69;92969.81;515656;28;857;-52
2023/04/19 00:05:07;;;;;;;1.88;1.10;;;;;;;8.91;84.97;92964.88;515727;28;845;-52
2023/04/19 00:05:23;;;;;;;2.20;1.10;;;;;;;8.89;84.80;92964.69;515697;28;821;-53
2023/04/19 00:05:40;;;;;;;1.73;1.30;;;;;;;8.88;85.10;92959.75;515762;28;853;-53
2023/04/19 00:05:58;;;;;;;1.27;1.17;;;;;;;8.90;85.05;92965.44;515623;28;898;-50
2023/04/19 00:06:13;;;;;;;1.27;1.00;;;;;;;8.85;84.91;92963.59;515749;28;799;-52
2023/04/19 00:06:29;;;;;;;1.70;1.10;;;;;;;8.85;85.18;92967.06;515784;28;846;-53
2023/04/19 00:06:46;;;;;;;1.92;1.08;;;;;;;8.84;85.14;92962.84;515700;28;937;-52
2023/04/19 00:07:02;;;;;;;2.35;1.02;;;;;;;8.84;85.23;92959.34;515947;28;806;-52
2023/04/19 00:07:19;;;;;;;1.52;0.90;;;;;;;8.85;85.35;92964.31;515865;28;850;-52
2023/04/19 00:07:35;;;;;;;1.60;1.00;;;;;;;8.87;85.36;92963.75;515807;28;855;-54
2023/04/19 00:07:50;;;;;;;1.80;1.20;;;;;;;8.89;85.27;92967.44;515878;28;849;-51
2023/04/19 00:08:06;;;;;;;1.27;1.10;;;;;;;8.89;85.17;92961.19;515820;28;840;-53
2023/04/19 00:08:21;;;;;;;1.80;1.05;;;;;;;8.90;85.13;92959.94;515943;28;798;-54
2023/04/19 00:08:37;;;;;;;2.07;1.17;;;;;;;8.88;85.17;92960.44;515809;28;856;-52
2023/04/19 00:08:52;;;;;;;2.20;1.40;;;;;;;8.87;85.38;92959.00;515846;28;853;-52
2023/04/19 00:09:08;;;;;;;1.90;1.27;;;;;;;8.86;85.18;92960.28;515820;28;773;-52
2023/04/19 00:09:23;;;;;;;1.38;1.20;;;;;;;8.84;85.43;92957.34;515902;28;845;-52
2023/04/19 00:09:39;;;;;;;1.70;1.13;;;;;;;8.73;85.53;92943.19;515833;28;1361;-51
2023/04/19 00:09:54;;;;;;;1.80;1.20;;;;;;;8.77;86.10;92958.06;515742;28;826;-54
2023/04/19 00:10:10;;;;;;;1.50;1.30;;;;;;;8.78;86.10;92958.78;515921;28;815;-55
2023/04/19 00:10:25;;;;;;;1.70;1.10;;;;;;;8.77;86.21;92960.81;515756;28;1665;-52
2023/04/19 00:10:40;;;;;;;1.90;1.10;;;;;;;8.78;85.91;92956.78;515933;28;779;-52
2023/04/19 00:10:56;;;;;;;1.40;1.20;;;;;;;8.80;85.96;92956.22;515605;28;1109;-54
2023/04/19 00:11:11;;;;;;;2.25;1.15;;;;;;;8.82;85.99;92957.16;517526;28;1991;-52
2023/04/19 00:11:27;;;;;;;3.03;1.20;;;;;;;8.82;86.16;92956.41;517649;28;1111;-54
2023/04/19 00:11:42;;;;;;;2.17;1.20;;;;;;;8.83;85.83;92958.63;517784;28;809;-53
2023/04/19 00:11:58;;;;;;;1.37;1.00;;;;;;;8.85;86.07;92960.81;517571;28;925;-52
2023/04/19 00:12:13;;;;;;;1.27;1.10;;;;;;;8.82;85.95;92957.16;517726;28;873;-52
2023/04/19 00:12:28;;;;;;;1.40;1.30;;;;;;;8.81;85.80;92957.72;517738;28;1625;-51
2023/04/19 00:12:44;;;;;;;1.33;1.23;;;;;;;8.81;85.99;92960.47;517718;28;848;-54
2023/04/19 00:12:59;;;;;;;1.30;1.20;;;;;;;8.80;85.83;92959.72;517563;28;852;-52
2023/04/19 00:13:14;;;;;;;2.00;1.25;;;;;;;8.81;85.83;92952.19;515793;28;892;-53
2023/04/19 00:13:30;;;;;;;2.60;1.20;;;;;;;8.78;85.73;92951.28;515928;28;772;-51
2023/04/19 00:13:45;;;;;;;2.10;1.13;;;;;;;8.78;86.02;92956.78;515791;28;938;-53
2023/04/19 00:14:00;;;;;;;1.83;1.20;;;;;;;8.76;85.91;92953.09;515828;28;824;-51
2023/04/19 00:14:16;;;;;;;1.70;1.20;;;;;;;8.64;86.04;92958.22;515770;28;868;-54
2023/04/19 00:14:31;;;;;;;1.75;1.38;;;;;;;8.59;86.62;92956.41;515832;28;967;-52
2023/04/19 00:14:46;;;;;;;1.80;1.50;;;;;;;8.57;86.91;92953.47;515789;28;931;-52
2023/04/19 00:15:02;;;;;;;1.47;1.33;;;;;;;8.57;87.09;92953.47;515858;28;959;-51
2023/04/19 00:15:18;;;;;;;1.33;1.13;;;;;;;8.56;87.15;92956.72;515789;28;911;-52
2023/04/19 00:15:33;;;;;;;1.63;1.38;;;;;;;8.54;87.47;92957.28;515875;28;805;-52
2023/04/19 00:15:49;;;;;;;2.33;1.50;;;;;;;8.54;87.58;92954.53;515885;28;783;-52
2023/04/19 00:16:05;;;;;;;2.65;1.50;;;;;;;8.55;87.74;92961.53;517399;28;1032;-52
2023/04/19 00:16:20;;;;;;;2.40;1.33;;;;;;;8.52;87.93;92957.09;517881;28;1467;-52
2023/04/19 00:16:35;;;;;;;1.97;1.17;;;;;;;8.52;87.94;92957.09;517862;28;894;-52
2023/04/19 00:16:51;;;;;;;1.87;1.43;;;;;;;8.51;88.12;92954.91;517924;28;969;-51
2023/04/19 00:17:06;;;;;;;2.58;1.67;;;;;;;8.47;88.15;92949.75;517873;28;805;-52
2023/04/19 00:17:21;;;;;;;2.40;1.50;;;;;;;8.47;88.42;92954.53;517897;28;867;-54
2023/04/19 00:17:37;;;;;;;2.40;1.43;;;;;;;8.45;88.39;92955.06;517859;28;880;-52
2023/04/19 00:17:52;;;;;;;2.17;1.42;;;;;;;8.44;88.76;92956.38;517785;28;1213;-52
2023/04/19 00:18:08;;;;;;;1.40;1.30;;;;;;;8.47;88.66;92951.78;517948;28;811;-51
2023/04/19 00:18:23;;;;;;;1.30;1.20;;;;;;;8.49;89.02;92955.44;517886;28;962;-51
2023/04/19 00:18:38;;;;;;;1.40;1.20;;;;;;;8.49;88.79;92949.22;517942;28;848;-51
2023/04/19 00:18:54;;;;;;;1.47;1.30;;;;;;;8.50;88.60;92959.66;517918;28;832;-54
2023/04/19 00:19:10;;;;;;;1.90;1.45;;;;;;;8.51;88.63;92949.41;517815;28;1596;-54
2023/04/19 00:19:25;;;;;;;2.23;1.50;;;;;;;8.47;88.95;92952.50;517888;28;814;-53
2023/04/19 00:19:41;;;;;;;1.80;1.33;;;;;;;8.47;88.83;92952.50;517916;28;770;-52
2023/04/19 00:19:57;;;;;;;2.20;1.40;;;;;;;8.49;88.83;92951.97;517715;28;876;-52
2023/04/19 00:20:12;;;;;;;2.38;1.80;;;;;;;8.50;88.78;92956.19;517921;28;848;-52
2023/04/19 00:20:28;;;;;;;2.10;1.63;;;;;;;8.51;88.69;92960.41;517906;28;862;-51
2023/04/19 00:20:43;;;;;;;2.40;1.30;;;;;;;8.51;88.58;92952.16;517881;28;920;-52
2023/04/19 00:20:59;;;;;;;2.23;1.30;;;;;;;8.51;88.61;92955.63;517925;28;848;-54
2023/04/19 00:21:15;;;;;;;2.05;1.48;;;;;;;8.47;88.85;92949.03;517871;28;789;-53
2023/04/19 00:21:31;;;;;;;2.17;1.55;;;;;;;8.47;88.90;92958.00;517931;28;861;-52
2023/04/19 00:21:46;;;;;;;1.57;1.43;;;;;;;8.47;88.87;92955.25;517848;28;829;-52
2023/04/19 00:22:02;;;;;;;2.30;1.60;;;;;;;8.44;88.90;92947.38;517804;28;923;-52
2023/04/19 00:22:17;;;;;;;2.33;1.53;;;;;;;8.44;89.13;92947.38;517840;28;953;-52
2023/04/19 00:22:33;;;;;;;2.10;1.40;;;;;;;8.37;89.52;92951.56;517848;28;892;-52
2023/04/19 00:22:48;;;;;;;2.33;1.40;;;;;;;8.36;89.41;92952.84;517897;28;967;-51
2023/04/19 00:23:03;;;;;;;2.30;1.55;;;;;;;8.30;89.68;92949.53;517870;28;801;-53
2023/04/19 00:23:19;;;;;;;2.13;1.53;;;;;;;8.28;89.70;92954.84;517869;28;832;-51
2023/04/19 00:23:34;;;;;;;1.88;1.42;;;;;;;8.30;89.92;92955.03;517899;28;781;-53
2023/04/19 00:23:50;;;;;;;1.97;1.53;;;;;;;8.31;90.05;92949.00;517862;28;828;-52
2023/04/19 00:24:06;;;;;;;1.77;1.45;;;;;;;8.31;90.42;92953.75;517859;28;884;-51
2023/04/19 00:24:21;;;;;;;1.40;1.30;;;;;;;8.31;90.50;92948.25;517954;28;784;-52
2023/04/19 00:24:36;;;;;;;2.35;1.42;;;;;;;8.33;90.28;92951.19;517765;28;1030;-52
2023/04/19 00:24:52;;;;;;;3.70;1.80;;;;;;;8.20;90.56;92927.31;517894;28;1652;-51
2023/04/19 00:25:08;;;;;;;2.83;1.70;;;;;;;8.38;90.67;92948.25;517894;28;829;-51
2023/04/19 00:25:23;;;;;;;3.83;1.50;;;;;;;8.39;90.51;92949.75;517904;28;966;-52
2023/04/19 00:25:39;;;;;;;3.58;1.40;;;;;;;8.40;90.53;92951.19;517950;28;781;-51
2023/04/19 00:25:54;;;;;;;1.63;1.30;;;;;;;8.42;90.44;92947.91;517799;28;781;-52
2023/04/19 00:26:10;;;;;;;2.10;1.40;;;;;;;8.43;90.49;92951.38;517919;28;869;-51
2023/04/19 00:26:25;;;;;;;2.92;1.80;;;;;;;8.44;90.53;92950.13;517861;28;860;-52
2023/04/19 00:26:41;;;;;;;3.10;2.10;;;;;;;8.38;90.48;92948.25;517908;28;799;-51
2023/04/19 00:26:58;;;;;;;2.83;1.97;;;;;;;8.39;90.91;92946.25;517785;28;840;-51
2023/04/19 00:27:13;;;;;;;2.60;1.75;;;;;;;8.37;90.65;92946.81;517832;28;844;-52
2023/04/19 00:27:28;;;;;;;2.40;1.73;;;;;;;8.36;90.99;92950.09;517927;28;832;-51
2023/04/19 00:27:44;;;;;;;2.60;1.70;;;;;;;8.33;90.87;92945.69;517817;28;992;-54
2023/04/19 00:27:59;;;;;;;2.90;1.90;;;;;;;8.34;90.75;92947.16;517805;28;848;-52
2023/04/19 00:28:15;;;;;;;2.53;2.10;;;;;;;8.36;90.63;92950.09;517844;28;801;-52
2023/04/19 00:28:30;;;;;;;2.87;2.00;;;;;;;8.36;90.92;92956.31;517883;28;827;-52
2023/04/19 00:28:45;;;;;;;2.80;2.07;;;;;;;8.33;90.59;92946.44;517869;28;801;-53
2023/04/19 00:29:00;;;;;;;3.37;1.90;;;;;;;8.34;90.95;92952.66;517909;28;888;-52
2023/04/19 00:29:16;;;;;;;3.80;1.90;;;;;;;8.35;90.88;92952.13;517731;28;782;-52
2023/04/19 00:29:31;;;;;;;3.17;1.97;;;;;;;8.38;90.67;92953.75;517983;28;812;-52
2023/04/19 00:29:47;;;;;;;3.45;2.08;;;;;;;8.42;90.64;92947.91;517817;28;838;-51
2023/04/19 00:30:02;;;;;;;3.27;1.80;;;;;;;8.43;90.84;92945.88;517809;28;856;-53
2023/04/19 00:30:18;;;;;;;2.20;1.60;;;;;;;8.45;90.76;92957.81;517878;28;821;-51
2023/04/19 00:30:33;;;;;;;3.07;1.80;;;;;;;8.44;90.44;92941.88;517113;28;2479;-53
2023/04/19 00:30:48;;;;;;;2.90;1.90;;;;;;;8.47;90.44;92949.75;515520;28;1111;-52
2023/04/19 00:31:04;;;;;;;1.93;1.70;;;;;;;8.48;90.21;92948.47;515707;28;1998;-52
2023/04/19 00:31:19;;;;;;;2.00;1.80;;;;;;;8.52;90.29;92948.13;515808;28;1030;-52
2023/04/19 00:31:35;;;;;;;3.15;2.10;;;;;;;8.47;90.05;92936.00;515799;28;841;-53
2023/04/19 00:31:51;;;;;;;3.63;2.10;;;;;;;8.53;89.95;92942.09;515780;28;880;-53
2023/04/19 00:32:07;;;;;;;2.63;1.83;;;;;;;8.51;90.09;92939.13;515797;28;845;-52
2023/04/19 00:32:23;;;;;;;2.40;1.85;;;;;;;8.58;90.12;92952.16;515838;28;847;-52
2023/04/19 00:32:38;;;;;;;2.30;1.80;;;;;;;8.61;89.96;92948.31;515877;28;844;-51
2023/04/19 00:32:53;;;;;;;2.67;1.88;;;;;;;8.62;89.84;92952.53;515737;28;818;-53
2023/04/19 00:33:11;;;;;;;2.87;2.10;;;;;;;8.63;89.79;92951.25;515826;28;929;-52
2023/04/19 00:33:26;;;;;;;3.50;2.30;;;;;;;8.65;89.67;92945.19;513758;28;908;-53
2023/04/19 00:33:42;;;;;;;4.27;2.17;;;;;;;8.66;89.54;92950.19;513821;28;841;-51
2023/04/19 00:33:57;;;;;;;3.73;2.40;;;;;;;8.67;90.05;92951.63;513685;28;848;-51
2023/04/19 00:34:12;;;;;;;3.08;2.58;;;;;;;8.70;89.56;92949.81;513780;28;1337;-51
2023/04/19 00:34:28;;;;;;;3.63;2.43;;;;;;;8.70;89.69;92939.53;513750;28;897;-52
2023/04/19 00:34:43;;;;;;;4.00;2.37;;;;;;;8.67;89.54;92945.38;513848;28;794;-53
2023/04/19 00:34:59;;;;;;;3.92;2.15;;;;;;;8.68;89.41;92947.59;513833;28;789;-54
2023/04/19 00:35:14;;;;;;;3.10;2.10;;;;;;;8.66;89.38;92944.66;513831;28;865;-52
2023/04/19 00:35:30;;;;;;;2.45;2.13;;;;;;;8.66;89.25;92949.44;513850;28;839;-52
2023/04/19 00:35:45;;;;;;;2.57;2.10;;;;;;;8.68;89.42;92953.13;513833;28;782;-52
2023/04/19 00:36:01;;;;;;;2.80;2.25;;;;;;;8.66;89.36;92950.19;513818;28;810;-55
2023/04/19 00:36:16;;;;;;;2.93;2.37;;;;;;;8.67;89.32;92954.38;513752;28;881;-54
2023/04/19 00:36:31;;;;;;;2.55;2.17;;;;;;;8.68;89.43;92953.13;513793;28;871;-51
2023/04/19 00:36:47;;;;;;;2.57;2.20;;;;;;;8.68;89.27;92949.63;513760;28;841;-53
2023/04/19 00:37:05;;;;;;;3.07;2.50;;;;;;;8.66;89.23;92952.19;513796;28;854;-52
2023/04/19 00:37:20;;;;;;;2.65;2.30;;;;;;;8.65;89.17;92951.44;513906;28;822;-54
2023/04/19 00:37:36;;;;;;;2.93;2.20;;;;;;;8.64;89.29;92952.00;513741;28;980;-52
2023/04/19 00:37:51;;;;;;;4.03;2.47;;;;;;;8.62;89.51;92955.28;513828;28;790;-54
2023/04/19 00:38:07;;;;;;;4.15;2.53;;;;;;;8.61;89.79;92958.59;513756;28;852;-54
2023/04/19 00:38:22;;;;;;;3.33;2.57;;;;;;;8.55;89.76;92955.28;513889;28;790;-52
2023/04/19 00:38:38;;;;;;;3.30;2.72;;;;;;;8.57;89.86;92955.47;513764;28;1630;-53
2023/04/19 00:38:53;;;;;;;3.77;2.67;;;;;;;8.56;90.12;92954.72;513859;28;829;-52
2023/04/19 00:39:08;;;;;;;3.80;2.50;;;;;;;8.57;90.09;92955.47;513777;28;955;-53
2023/04/19 00:39:24;;;;;;;3.85;2.42;;;;;;;8.61;90.03;92958.59;513782;28;860;-52
2023/04/19 00:39:39;;;;;;;3.73;2.40;;;;;;;8.64;90.12;92949.25;513751;28;940;-53
2023/04/19 00:39:54;;;;;;;2.93;2.30;;;;;;;8.67;89.79;92956.41;513710;28;893;-54
2023/04/19 00:40:11;;;;;;;2.85;2.30;;;;;;;8.68;89.76;92949.63;513809;28;853;-53
2023/04/19 00:40:26;;;;;;;2.97;2.50;;;;;;;8.70;89.53;92953.28;513755;28;869;-52
2023/04/19 00:40:42;;;;;;;3.03;2.63;;;;;;;8.69;89.47;92949.06;513794;28;1563;-53
2023/04/19 00:40:58;;;;;;;3.30;2.70;;;;;;;8.68;89.58;92955.88;513814;28;802;-54
2023/04/19 00:41:13;;;;;;;3.63;2.70;;;;;;;8.68;89.63;92944.84;513781;28;923;-51
2023/04/19 00:41:29;;;;;;;3.55;2.78;;;;;;;8.71;89.54;92946.50;513878;28;825;-51
2023/04/19 00:41:44;;;;;;;3.70;2.80;;;;;;;8.72;89.33;92950.72;513747;28;862;-52
2023/04/19 00:42:00;;;;;;;3.70;2.90;;;;;;;8.76;89.30;92950.34;513873;28;836;-52
2023/04/19 00:42:15;;;;;;;3.95;2.72;;;;;;;8.78;89.40;92947.78;513807;28;983;-53
2023/04/19 00:42:30;;;;;;;3.97;2.50;;;;;;;8.83;89.13;92950.38;513849;28;1531;-54
2023/04/19 00:42:46;;;;;;;3.35;2.63;;;;;;;8.87;89.15;92953.50;513761;28;1013;-54
2023/04/19 00:43:01;;;;;;;3.40;2.73;;;;;;;8.91;89.03;92953.13;513923;28;773;-52
2023/04/19 00:43:19;;;;;;;3.17;2.50;;;;;;;8.94;88.91;92957.53;513816;28;834;-53
2023/04/19 00:43:35;;;;;;;3.70;2.47;;;;;;;8.95;88.95;92951.47;513706;28;884;-51
2023/04/19 00:43:50;;;;;;;3.70;2.80;;;;;;;8.96;88.99;92949.47;513870;28;773;-55
2023/04/19 00:44:05;;;;;;;3.63;2.87;;;;;;;8.97;88.91;92943.41;513755;28;884;-53
2023/04/19 00:44:21;;;;;;;3.53;2.85;;;;;;;8.96;88.89;92949.47;513749;28;860;-51
2023/04/19 00:44:36;;;;;;;3.23;2.70;;;;;;;8.95;88.97;92948.72;513797;28;785;-53
2023/04/19 00:44:51;;;;;;;3.00;2.57;;;;;;;8.96;88.84;92943.94;513904;28;950;-53
2023/04/19 00:45:07;;;;;;;3.45;2.78;;;;;;;8.96;88.55;92947.44;513796;28;781;-52
2023/04/19 00:45:24;;;;;;;4.10;2.83;;;;;;;8.96;88.57;92950.19;513831;28;957;-52
2023/04/19 00:45:40;;;;;;;3.70;2.95;;;;;;;8.97;88.50;92945.41;513909;28;849;-54
2023/04/19 00:45:55;;;;;;;3.67;3.00;;;;;;;8.97;88.36;92953.66;513575;28;1156;-54
2023/04/19 00:46:10;;;;;;;4.00;2.70;;;;;;;8.98;88.54;92953.13;513519;28;1402;-55
2023/04/19 00:46:26;;;;;;;3.72;2.50;;;;;;;8.98;88.42;92947.63;511646;28;801;-52
2023/04/19 00:46:42;;;;;;;3.27;2.57;;;;;;;8.97;88.08;92954.41;511606;29;961;-52
2023/04/19 00:46:58;;;;;;;3.70;2.58;;;;;;;8.95;88.28;92951.47;511657;29;1064;-52
2023/04/19 00:47:14;;;;;;;3.30;2.63;;;;;;;8.95;88.22;92951.47;511646;29;846;-52
2023/04/19 00:47:29;;;;;;;3.50;2.60;;;;;;;8.97;88.09;92956.41;509664;29;986;-53
2023/04/19 00:47:45;;;;;;;3.78;2.53;;;;;;;8.96;87.79;92954.97;510100;29;901;-53
2023/04/19 00:48:00;;;;;;;3.67;2.80;;;;;;;8.95;87.53;92948.72;511182;28;1231;-53
2023/04/19 00:48:16;;;;;;;3.83;3.10;;;;;;;8.96;87.93;92954.97;512097;28;921;-52
2023/04/19 00:48:32;;;;;;;3.83;2.87;;;;;;;8.97;87.77;92945.41;511735;29;1072;-52
2023/04/19 00:48:48;;;;;;;3.42;2.72;;;;;;;8.98;87.66;92947.63;510270;29;989;-53
2023/04/19 00:49:04;;;;;;;3.45;2.80;;;;;;;9.01;87.64;92951.28;509639;28;925;-53
2023/04/19 00:49:21;;;;;;;3.73;2.97;;;;;;;9.03;87.38;92945.97;510271;29;776;-53
2023/04/19 00:49:37;;;;;;;4.47;3.30;;;;;;;9.04;87.47;92942.66;511541;29;1096;-52
2023/04/19 00:49:52;;;;;;;3.92;2.97;;;;;;;9.07;87.10;92954.59;511568;29;917;-52
2023/04/19 00:50:08;;;;;;;4.50;2.60;;;;;;;9.07;87.28;92954.59;511614;28;837;-52
2023/04/19 00:50:24;;;;;;;5.10;2.85;;;;;;;8.98;87.17;92950.38;512454;28;1614;-53
2023/04/19 00:50:41;;;;;;;4.28;2.95;;;;;;;9.02;87.16;92953.50;512453;28;844;-51
2023/04/19 00:50:57;;;;;;;4.82;3.10;;;;;;;9.04;86.96;92959.19;512461;28;902;-52
2023/04/19 00:51:12;;;;;;;4.60;3.22;;;;;;;9.04;87.00;92950.94;511632;29;1910;-52
2023/04/19 00:51:28;;;;;;;5.60;3.73;;;;;;;9.02;86.87;92959.00;509635;29;780;-53
2023/04/19 00:51:43;;;;;;;5.65;4.07;;;;;;;8.99;87.05;92948.34;509683;29;1041;-54
2023/04/19 00:51:58;;;;;;;5.90;4.23;;;;;;;9.03;86.91;92949.44;509403;28;842;-54
2023/04/19 00:52:14;;;;;;;5.85;4.10;;;;;;;9.00;87.09;92949.81;509706;29;865;-53
2023/04/19 00:52:31;;;;;;;4.97;4.00;;;;;;;9.00;87.24;92950.56;510209;29;821;-53
2023/04/19 00:52:47;;;;;;;5.15;3.92;;;;;;;9.03;87.10;92954.25;512210;28;854;-54
2023/04/19 00:53:03;;;;;;;6.57;4.50;;;;;;;9.01;87.25;92946.50;512251;28;917;-52
2023/04/19 00:53:18;;;;;;;5.65;4.32;;;;;;;8.90;87.24;92948.91;512190;28;989;-52
2023/04/19 00:53:33;;;;;;;4.07;3.43;;;;;;;8.83;87.43;92947.63;513621;28;1517;-51
2023/04/19 00:53:49;;;;;;;3.90;3.10;;;;;;;8.81;87.76;92950.19;511685;28;813;-54
2023/04/19 00:54:05;;;;;;;4.80;3.10;;;;;;;8.82;88.00;92953.66;511673;28;880;-52
2023/04/19 00:54:21;;;;;;;5.65;3.15;;;;;;;8.82;88.10;92951.66;511698;28;825;-53
2023/04/19 00:54:36;;;;;;;4.55;2.78;;;;;;;8.85;87.94;92944.31;511579;28;830;-53
2023/04/19 00:54:52;;;;;;;4.70;3.00;;;;;;;8.88;87.89;92948.72;512055;28;785;-52
2023/04/19 00:55:08;;;;;;;6.20;3.40;;;;;;;8.92;88.10;92951.84;515032;28;1255;-52
2023/04/19 00:55:23;;;;;;;5.22;3.40;;;;;;;8.95;87.65;92950.72;513630;28;1570;-53
2023/04/19 00:55:39;;;;;;;6.40;3.97;;;;;;;8.95;87.94;92943.22;513704;28;844;-52
2023/04/19 00:55:56;;;;;;;8.63;4.77;;;;;;;8.98;87.52;92941.38;513520;28;1077;-52
2023/04/19 00:56:12;;;;;;;7.72;5.10;;;;;;;9.01;87.71;92941.00;513653;28;1544;-54
2023/04/19 00:56:28;;;;;;;6.93;5.05;;;;;;;9.05;87.42;92946.88;513660;28;817;-51
2023/04/19 00:56:44;;;;;;;7.35;5.30;;;;;;;9.09;87.45;92946.53;513645;28;806;-54
2023/04/19 00:57:00;;;;;;;8.38;5.63;;;;;;;9.11;87.26;92949.47;513599;28;842;-53
2023/04/19 00:57:16;;;;;;;7.97;5.43;;;;;;;9.02;87.23;92931.47;514408;28;857;-53
2023/04/19 00:57:32;;;;;;;8.00;5.57;;;;;;;9.13;87.07;92944.13;515613;28;1107;-53
2023/04/19 00:57:47;;;;;;;8.13;5.68;;;;;;;9.11;87.02;92941.19;515551;28;997;-54
2023/04/19 00:58:04;;;;;;;7.10;5.57;;;;;;;9.13;86.80;92942.13;515603;28;1088;-52
2023/04/19 00:58:20;;;;;;;7.82;5.82;;;;;;;9.19;86.75;92944.66;515727;28;994;-55
2023/04/19 00:58:37;;;;;;;9.27;6.13;;;;;;;9.22;86.56;92938.06;515631;28;848;-52
2023/04/19 00:58:53;;;;;;;7.90;6.07;;;;;;;9.25;86.62;92934.19;515577;28;906;-53
2023/04/19 00:59:08;;;;;;;7.05;5.55;;;;;;;9.29;86.53;92944.88;515652;28;866;-52
2023/04/19 00:59:24;;;;;;;7.83;5.83;;;;;;;9.28;86.17;92937.88;515677;28;828;-54
2023/04/19 00:59:39;;;;;;;8.75;5.97;;;;;;;9.34;85.95;92944.66;515545;28;798;-52
2023/04/19 00:59:55;;;;;;;9.53;5.50;;;;;;;9.37;85.69;92943.56;515575;28;782;-54
2023/04/19 01:00:11;;;;;;;8.05;5.10;;;;;;;9.35;85.83;92937.88;515690;28;936;-54
2023/04/19 01:00:27;;;;;;;6.60;4.67;;;;;;;9.36;85.85;92941.34;515528;28;853;-54
2023/04/19 01:00:43;;;;;;;6.65;4.63;;;;;;;9.36;85.57;92944.09;515710;28;774;-52
2023/04/19 01:00:59;;;;;;;6.25;4.57;;;;;;;9.35;85.65;92943.38;515658;28;874;-53
2023/04/19 01:01:14;;;;;;;5.85;4.32;;;;;;;9.37;85.47;92940.06;515587;28;1089;-52
2023/04/19 01:01:29;;;;;;;6.57;4.70;;;;;;;9.38;85.61;92941.53;515728;28;868;-54
2023/04/19 01:01:45;;;;;;;7.83;5.00;;;;;;;9.37;85.59;92940.81;515569;28;932;-54
2023/04/19 01:02:00;;;;;;;7.65;5.00;;;;;;;9.40;85.34;92945.19;515657;28;830;-52
2023/04/19 01:02:16;;;;;;;7.57;5.00;;;;;;;9.42;85.42;92939.16;515691;28;1104;-52
2023/04/19 01:02:32;;;;;;;8.27;4.90;;;;;;;9.44;85.16;92942.09;515831;28;801;-52
2023/04/19 01:02:47;;;;;;;7.60;4.65;;;;;;;9.46;85.04;92942.25;515790;28;805;-54
2023/04/19 01:03:03;;;;;;;6.37;4.43;;;;;;;9.46;85.24;92937.50;515821;28;798;-53
2023/04/19 01:03:19;;;;;;;7.13;4.35;;;;;;;9.48;85.09;92942.44;515796;28;908;-52
2023/04/19 01:03:35;;;;;;;7.28;4.72;;;;;;;9.47;84.80;92941.69;515781;28;844;-54
2023/04/19 01:03:50;;;;;;;7.47;4.78;;;;;;;9.49;84.48;92941.13;515759;28;805;-51
2023/04/19 01:04:06;;;;;;;6.90;4.40;;;;;;;9.50;84.78;92934.34;515662;28;928;-53
2023/04/19 01:04:22;;;;;;;6.10;4.00;;;;;;;9.49;84.52;92941.88;515902;28;813;-52
2023/04/19 01:04:37;;;;;;;6.20;4.20;;;;;;;9.49;84.47;92938.38;515693;28;814;-51
2023/04/19 01:04:53;;;;;;;6.37;4.70;;;;;;;9.45;84.62;92943.53;515820;28;797;-53
2023/04/19 01:05:08;;;;;;;6.05;4.47;;;;;;;9.44;84.59;92933.81;515770;28;1083;-52
2023/04/19 01:05:24;;;;;;;5.53;4.23;;;;;;;9.46;84.58;92942.25;515595;28;1115;-53
2023/04/19 01:05:39;;;;;;;5.90;4.40;;;;;;;9.46;84.80;92939.50;515660;28;1137;-51
2023/04/19 01:05:55;;;;;;;5.67;4.03;;;;;;;9.47;84.50;92938.22;515511;28;1492;-53
2023/04/19 01:06:11;;;;;;;5.63;4.00;;;;;;;9.48;84.81;92936.94;515658;28;917;-52
2023/04/19 01:06:27;;;;;;;5.78;3.95;;;;;;;9.48;84.77;92937.69;513650;28;853;-51
2023/04/19 01:06:42;;;;;;;5.38;3.47;;;;;;;9.52;84.92;92934.53;513673;28;896;-52
2023/04/19 01:06:58;;;;;;;5.53;3.43;;;;;;;9.53;84.73;92933.97;513627;28;863;-51
2023/04/19 01:07:13;;;;;;;5.15;3.50;;;;;;;9.55;84.68;92931.38;514108;28;794;-51
2023/04/19 01:07:28;;;;;;;5.00;3.43;;;;;;;9.53;84.97;92928.47;515685;28;777;-52
2023/04/19 01:07:45;;;;;;;4.07;3.20;;;;;;;9.50;84.86;92937.09;515591;28;855;-52
2023/04/19 01:08:00;;;;;;;3.22;2.92;;;;;;;9.44;84.87;92931.78;515614;28;1623;-52
2023/04/19 01:08:15;;;;;;;3.50;3.20;;;;;;;9.42;84.89;92937.09;515602;28;824;-53
2023/04/19 01:08:31;;;;;;;4.13;3.27;;;;;;;9.44;85.26;92936.56;515775;28;920;-52
2023/04/19 01:08:47;;;;;;;3.70;2.92;;;;;;;9.28;85.45;92918.59;515791;28;800;-52
2023/04/19 01:09:02;;;;;;;4.05;2.80;;;;;;;9.34;85.42;92930.88;515793;28;860;-52
2023/04/19 01:09:17;;;;;;;3.60;2.70;;;;;;;9.27;85.38;92933.66;515564;28;1241;-53
2023/04/19 01:09:33;;;;;;;3.17;2.73;;;;;;;9.28;86.03;92935.84;515653;28;805;-52
2023/04/19 01:09:49;;;;;;;3.50;2.70;;;;;;;9.31;85.88;92936.78;515568;28;860;-54
2023/04/19 01:10:04;;;;;;;3.20;2.50;;;;;;;9.28;85.93;92932.38;515518;28;889;-53
2023/04/19 01:10:20;;;;;;;2.90;2.45;;;;;;;9.28;85.67;92930.34;515716;28;847;-53
2023/04/19 01:10:35;;;;;;;3.65;2.42;;;;;;;9.26;85.98;92929.44;515631;28;815;-52
2023/04/19 01:10:50;;;;;;;4.03;2.40;;;;;;;9.24;85.96;92929.25;515600;28;1365;-52
2023/04/19 01:11:09;;;;;;;3.47;2.67;;;;;;;9.19;86.03;92933.66;515588;28;1958;-52
2023/04/19 01:11:24;;;;;;;3.45;2.45;;;;;;;9.20;86.15;92928.88;515736;28;1175;-55
2023/04/19 01:11:40;;;;;;;2.83;2.30;;;;;;;9.18;86.19;92932.91;515798;28;814;-54
2023/04/19 01:11:55;;;;;;;3.10;2.53;;;;;;;9.12;86.55;92928.88;515709;28;810;-54
2023/04/19 01:12:11;;;;;;;3.73;2.60;;;;;;;9.11;86.44;92933.69;515793;28;902;-53
2023/04/19 01:12:26;;;;;;;3.80;2.83;;;;;;;9.10;86.75;92931.44;515728;28;915;-52
2023/04/19 01:12:41;;;;;;;4.03;3.00;;;;;;;9.05;87.14;92935.84;515797;28;880;-53
2023/04/19 01:12:57;;;;;;;4.03;2.67;;;;;;;9.08;87.37;92934.75;515799;28;777;-52
2023/04/19 01:13:12;;;;;;;4.00;2.70;;;;;;;9.10;87.18;92932.19;515745;28;1197;-51
2023/04/19 01:13:27;;;;;;;3.50;2.60;;;;;;;9.11;87.26;92932.94;515822;28;1147;-52
2023/04/19 01:13:43;;;;;;;3.27;2.53;;;;;;;9.11;87.14;92933.69;515823;28;824;-52
2023/04/19 01:13:58;;;;;;;3.33;2.50;;;;;;;9.09;87.38;92932.75;515685;28;870;-51
2023/04/19 01:14:14;;;;;;;3.50;2.50;;;;;;;9.09;87.26;92933.50;515780;28;824;-55
2023/04/19 01:14:29;;;;;;;3.90;2.65;;;;;;;9.11;87.24;92928.16;515870;28;831;-51
2023/04/19 01:14:45;;;;;;;4.13;2.80;;;;;;;9.16;87.15;92929.97;515628;28;779;-51
2023/04/19 01:15:01;;;;;;;4.23;2.80;;;;;;;9.21;86.95;92931.09;515855;28;828;-54
2023/04/19 01:15:16;;;;;;;3.53;2.90;;;;;;;9.18;86.83;92927.41;515713;28;1017;-52
2023/04/19 01:15:32;;;;;;;3.43;2.67;;;;;;;9.21;86.83;92924.84;515849;28;860;-52
2023/04/19 01:15:47;;;;;;;3.57;2.73;;;;;;;9.09;86.71;92916.97;515788;28;844;-52
2023/04/19 01:16:02;;;;;;;3.28;2.67;;;;;;;9.22;86.80;92926.31;517069;28;1639;-51
2023/04/19 01:16:18;;;;;;;2.97;2.40;;;;;;;9.24;86.82;92929.25;517777;28;1011;-52
2023/04/19 01:16:35;;;;;;;3.25;2.50;;;;;;;9.25;86.73;92925.22;517836;28;761;-54
2023/04/19 01:16:50;;;;;;;3.53;2.50;;;;;;;9.19;86.63;92919.88;517807;28;1077;-54
2023/04/19 01:17:07;;;;;;;3.25;2.40;;;;;;;9.03;86.61;92910.19;517800;28;883;-52